Time;durP1;ratioP1;P1;durP2;ratioP2;P2;SDS_P1;SDS_P2;PMS_P1;PMS_P2;Temp;Humidity;BMP_temperature;BMP_pressure;BME280_temperature;BME280_humidity;BME280_pressure;Samples;Min_cycle;Max_cycle;Signal;HPM_P1;HPM_P2
2023/08/12 00:00:10;;;;;;;2.73;2.53;;;14.50;99.90;;;;;;5086756;28;20503;-79
2023/08/12 00:02:38;;;;;;;2.57;2.37;;;14.50;99.90;;;;;;5086607;28;21463;-78
2023/08/12 00:05:05;;;;;;;1.40;1.30;;;14.50;99.90;;;;;;5081476;28;20464;-76
2023/08/12 00:07:33;;;;;;;1.97;1.60;;;14.50;99.90;;;;;;5082609;28;20461;-77
2023/08/12 00:10:00;;;;;;;2.60;1.43;;;14.50;99.90;;;;;;5086117;28;20946;-77
2023/08/12 00:12:27;;;;;;;1.80;1.70;;;14.40;99.90;;;;;;5084432;28;20881;-78
2023/08/12 00:14:56;;;;;;;1.87;1.77;;;14.40;99.90;;;;;;5083920;28;20500;-79
2023/08/12 00:17:23;;;;;;;3.50;1.87;;;14.40;99.90;;;;;;5085151;28;20487;-77
2023/08/12 00:19:50;;;;;;;3.73;2.00;;;14.40;99.90;;;;;;5085535;28;20436;-78
2023/08/12 00:22:17;;;;;;;1.70;1.60;;;14.40;99.90;;;;;;5084392;28;20468;-79
2023/08/12 00:24:44;;;;;;;1.93;1.73;;;14.30;99.90;;;;;;5085894;28;20560;-77
2023/08/12 00:27:11;;;;;;;1.80;1.70;;;14.20;99.90;;;;;;5085201;28;20495;-78
2023/08/12 00:29:38;;;;;;;1.80;1.70;;;14.10;99.90;;;;;;5085760;28;20504;-78
2023/08/12 00:32:07;;;;;;;1.90;1.70;;;14.00;99.90;;;;;;5084832;28;20444;-76
2023/08/12 00:34:34;;;;;;;1.70;1.60;;;14.00;99.90;;;;;;5079925;28;20537;-77
2023/08/12 00:37:01;;;;;;;2.00;1.70;;;13.90;99.90;;;;;;5086199;28;20976;-76
2023/08/12 00:39:28;;;;;;;2.53;2.33;;;13.90;99.90;;;;;;5082304;28;20455;-78
2023/08/12 00:41:55;;;;;;;2.60;2.40;;;13.90;99.90;;;;;;5081853;28;20491;-79
2023/08/12 00:44:22;;;;;;;2.03;1.93;;;13.90;99.90;;;;;;5086055;28;20477;-77
2023/08/12 00:46:49;;;;;;;1.80;1.70;;;13.90;99.90;;;;;;5082733;28;20459;-76
2023/08/12 00:49:19;;;;;;;2.80;2.60;;;13.90;99.90;;;;;;5083443;28;20453;-78
2023/08/12 00:51:46;;;;;;;2.53;2.17;;;13.80;99.90;;;;;;5088980;28;20507;-77
2023/08/12 00:54:16;;;;;;;4.07;2.63;;;13.80;99.90;;;;;;5083125;28;21053;-76
2023/08/12 00:56:43;;;;;;;1.83;1.70;;;13.80;99.90;;;;;;5082830;28;20459;-77
2023/08/12 00:59:11;;;;;;;2.23;1.90;;;13.80;99.90;;;;;;5086081;28;20511;-79
2023/08/12 01:01:41;;;;;;;2.93;2.70;;;13.80;99.90;;;;;;5085344;28;20990;-78
2023/08/12 01:04:08;;;;;;;3.13;2.30;;;13.80;99.90;;;;;;5079244;28;20463;-77
2023/08/12 01:06:37;;;;;;;2.60;2.20;;;13.80;99.90;;;;;;5082428;28;21025;-79
2023/08/12 01:09:06;;;;;;;2.80;2.50;;;13.80;99.90;;;;;;5084215;28;20543;-79
2023/08/12 01:11:40;;;;;;;1.80;1.70;;;13.80;99.90;;;;;;5073921;28;20542;-78
2023/08/12 01:14:13;;;;;;;2.70;2.17;;;13.70;99.90;;;;;;5084456;28;20515;-77
2023/08/12 01:16:44;;;;;;;2.87;2.67;;;13.60;99.90;;;;;;5087511;28;20890;-77
2023/08/12 01:19:18;;;;;;;2.87;2.60;;;13.50;99.90;;;;;;5084684;28;20461;-78
2023/08/12 01:21:48;;;;;;;3.00;2.17;;;13.60;99.90;;;;;;5090134;28;20471;-78
2023/08/12 01:24:16;;;;;;;2.70;2.40;;;13.60;99.90;;;;;;5089024;28;20516;-77
2023/08/12 01:26:43;;;;;;;2.00;1.77;;;13.60;99.90;;;;;;5090118;28;20493;-79
2023/08/12 01:29:10;;;;;;;2.30;2.10;;;13.50;99.90;;;;;;5083543;28;20972;-77
2023/08/12 01:31:46;;;;;;;1.67;1.57;;;13.50;99.90;;;;;;5090215;28;20506;-76
2023/08/12 01:34:27;;;;;;;3.10;2.03;;;13.50;99.90;;;;;;5090070;28;20488;-76
2023/08/12 01:36:57;;;;;;;2.70;1.77;;;13.40;99.90;;;;;;5087939;28;20522;-77
2023/08/12 01:39:27;;;;;;;2.60;1.60;;;13.40;99.90;;;;;;5088417;28;20463;-79
2023/08/12 01:41:55;;;;;;;3.97;1.87;;;13.30;99.90;;;;;;5088425;28;20521;-77
2023/08/12 01:44:22;;;;;;;2.90;2.70;;;13.30;99.90;;;;;;5087914;28;20474;-79
2023/08/12 01:46:50;;;;;;;2.23;2.10;;;13.30;99.90;;;;;;5090158;28;20465;-79
2023/08/12 01:49:17;;;;;;;2.93;2.00;;;13.30;99.90;;;;;;5089007;28;20610;-79
2023/08/12 01:51:44;;;;;;;2.23;2.03;;;13.30;99.90;;;;;;5089593;28;20879;-79
2023/08/12 01:54:11;;;;;;;2.33;2.23;;;13.30;99.90;;;;;;5087853;28;20519;-78
2023/08/12 01:56:39;;;;;;;2.43;2.27;;;13.30;99.90;;;;;;5088656;28;20523;-77
2023/08/12 01:59:07;;;;;;;2.90;2.70;;;13.30;99.90;;;;;;5088905;28;20448;-79
2023/08/12 02:01:33;;;;;;;3.00;2.80;;;13.20;99.90;;;;;;5089234;28;20475;-76
2023/08/12 02:04:00;;;;;;;2.67;2.50;;;13.20;99.90;;;;;;5086053;28;20562;-79
2023/08/12 02:06:27;;;;;;;6.70;3.10;;;13.10;99.90;;;;;;5087941;28;20499;-78
2023/08/12 02:08:54;;;;;;;8.50;2.10;;;13.10;99.90;;;;;;5084675;28;20497;-77
2023/08/12 02:11:21;;;;;;;1.70;1.53;;;13.10;99.90;;;;;;5087500;28;20991;-79
2023/08/12 02:13:49;;;;;;;2.33;2.17;;;13.20;99.90;;;;;;5087484;28;20845;-76
2023/08/12 02:16:16;;;;;;;2.40;2.20;;;13.20;99.90;;;;;;5085931;28;21018;-79
2023/08/12 02:18:43;;;;;;;1.77;1.67;;;13.20;99.90;;;;;;5085668;28;20498;-78
2023/08/12 02:21:10;;;;;;;1.40;1.30;;;13.30;99.90;;;;;;5083792;28;21023;-77
2023/08/12 02:23:37;;;;;;;2.70;2.27;;;13.30;99.90;;;;;;5085135;28;20458;-75
2023/08/12 02:26:04;;;;;;;2.27;2.07;;;13.20;99.90;;;;;;5087398;28;20444;-77
2023/08/12 02:28:31;;;;;;;2.13;2.03;;;13.20;99.90;;;;;;5082489;28;20459;-76
2023/08/12 02:30:59;;;;;;;2.57;1.83;;;13.30;99.90;;;;;;5086199;28;20479;-79
2023/08/12 02:33:26;;;;;;;1.70;1.60;;;13.30;99.90;;;;;;5087470;28;20511;-79
2023/08/12 02:35:55;;;;;;;3.03;2.83;;;13.30;99.90;;;;;;5087756;28;20536;-78
2023/08/12 02:38:22;;;;;;;3.33;2.90;;;13.30;99.90;;;;;;5088340;28;20870;-78
2023/08/12 02:40:50;;;;;;;2.37;2.17;;;13.30;99.90;;;;;;5083420;28;20451;-77
2023/08/12 02:43:17;;;;;;;3.93;2.00;;;13.20;99.90;;;;;;5088940;28;20522;-76
2023/08/12 02:45:44;;;;;;;2.50;2.30;;;13.20;99.90;;;;;;5087443;28;20462;-79
2023/08/12 02:48:12;;;;;;;2.50;2.30;;;13.00;99.90;;;;;;5085979;28;20471;-77
2023/08/12 02:50:39;;;;;;;1.93;1.83;;;13.00;99.90;;;;;;5084547;28;21029;-78
2023/08/12 02:53:08;;;;;;;2.30;2.20;;;12.90;99.90;;;;;;5083694;28;20438;-77
2023/08/12 02:55:37;;;;;;;2.13;1.90;;;12.80;99.90;;;;;;5087931;28;20509;-79
2023/08/12 02:58:04;;;;;;;2.63;2.07;;;12.80;99.90;;;;;;5085965;28;20542;-78
2023/08/12 03:00:31;;;;;;;2.30;1.90;;;12.80;99.90;;;;;;5088330;28;20479;-77
2023/08/12 03:02:58;;;;;;;2.70;2.50;;;12.80;99.90;;;;;;5085103;28;20433;-79
2023/08/12 03:05:26;;;;;;;1.40;1.30;;;12.70;99.90;;;;;;5083965;28;20463;-78
2023/08/12 03:07:53;;;;;;;4.67;2.40;;;12.70;99.90;;;;;;5085907;28;20834;-78
2023/08/12 03:10:20;;;;;;;2.83;1.80;;;12.70;99.90;;;;;;5087040;28;20985;-80
2023/08/12 03:12:47;;;;;;;2.13;1.93;;;12.80;99.90;;;;;;5075987;28;20498;-79
2023/08/12 03:15:15;;;;;;;2.70;2.50;;;12.90;99.90;;;;;;5087860;28;20486;-79
2023/08/12 03:17:42;;;;;;;2.33;2.00;;;13.00;99.90;;;;;;5087711;28;20443;-78
2023/08/12 03:20:09;;;;;;;2.17;1.93;;;12.90;99.90;;;;;;5083232;28;20460;-78
2023/08/12 03:22:39;;;;;;;2.10;1.40;;;12.90;99.90;;;;;;5085238;28;20475;-77
2023/08/12 03:25:06;;;;;;;1.23;1.13;;;12.80;99.90;;;;;;5086626;28;20450;-80
2023/08/12 03:27:33;;;;;;;2.60;2.40;;;12.80;99.90;;;;;;5085811;28;20497;-76
2023/08/12 03:30:00;;;;;;;2.13;1.67;;;12.70;99.90;;;;;;5086405;28;21046;-79
2023/08/12 03:32:27;;;;;;;2.13;1.80;;;12.50;99.90;;;;;;5086387;28;20475;-79
2023/08/12 03:34:54;;;;;;;1.47;1.37;;;12.50;99.90;;;;;;5084723;28;20557;-78
2023/08/12 03:37:21;;;;;;;1.67;1.57;;;12.40;99.90;;;;;;5086992;28;20446;-78
2023/08/12 03:39:49;;;;;;;2.13;2.03;;;12.40;99.90;;;;;;5086488;28;20474;-79
2023/08/12 03:42:16;;;;;;;2.63;2.43;;;12.40;99.90;;;;;;5086743;28;20474;-80
2023/08/12 03:44:44;;;;;;;2.30;2.17;;;12.40;99.90;;;;;;5085322;28;20539;-76
2023/08/12 03:47:11;;;;;;;2.67;2.47;;;12.50;99.90;;;;;;5085946;28;20494;-78
2023/08/12 03:49:38;;;;;;;2.50;2.30;;;12.40;99.90;;;;;;5086039;28;20565;-78
2023/08/12 03:52:06;;;;;;;2.30;2.17;;;12.50;99.90;;;;;;5087228;28;20543;-78
2023/08/12 03:54:34;;;;;;;2.90;2.50;;;12.50;99.90;;;;;;5082419;28;20535;-78
2023/08/12 03:57:02;;;;;;;3.30;2.17;;;12.50;99.90;;;;;;5098294;28;20447;-76
2023/08/12 03:59:29;;;;;;;3.17;2.97;;;12.50;99.90;;;;;;5094940;28;20509;-77
2023/08/12 04:01:57;;;;;;;2.40;2.20;;;12.50;99.90;;;;;;5085966;28;20508;-75
2023/08/12 04:04:24;;;;;;;2.90;2.70;;;12.50;99.90;;;;;;5087210;28;20455;-78
2023/08/12 04:06:51;;;;;;;1.43;1.33;;;12.50;99.90;;;;;;5083757;28;20465;-77
2023/08/12 04:09:18;;;;;;;2.20;1.90;;;12.40;99.90;;;;;;5086149;28;20534;-76
2023/08/12 04:11:45;;;;;;;5.30;1.87;;;12.50;99.90;;;;;;5085380;28;20864;-78
2023/08/12 04:14:14;;;;;;;2.33;2.13;;;12.50;99.90;;;;;;5086777;28;20581;-77
2023/08/12 04:16:41;;;;;;;4.13;2.60;;;12.60;99.90;;;;;;5085075;28;21254;-78
2023/08/12 04:19:08;;;;;;;2.37;2.17;;;12.70;99.90;;;;;;5082708;28;20436;-78
2023/08/12 04:21:35;;;;;;;1.90;1.80;;;12.70;99.90;;;;;;5085853;28;20492;-76
2023/08/12 04:24:02;;;;;;;2.60;2.10;;;12.70;99.90;;;;;;5085302;28;20504;-79
2023/08/12 04:26:29;;;;;;;2.57;2.40;;;12.80;99.90;;;;;;5086022;28;20447;-78
2023/08/12 04:28:56;;;;;;;6.03;3.47;;;12.90;99.90;;;;;;5085834;28;20550;-77
2023/08/12 04:31:24;;;;;;;2.27;2.10;;;13.00;99.90;;;;;;5086677;28;20447;-78
2023/08/12 04:33:52;;;;;;;3.20;3.00;;;13.10;99.90;;;;;;5082668;28;20455;-79
2023/08/12 04:36:21;;;;;;;3.27;2.97;;;13.20;99.90;;;;;;5082798;28;20448;-78
2023/08/12 04:38:47;;;;;;;2.27;2.00;;;13.30;99.90;;;;;;5084620;28;20471;-77
2023/08/12 04:41:14;;;;;;;6.07;2.77;;;13.30;99.90;;;;;;5085666;28;21001;-77
2023/08/12 04:43:41;;;;;;;3.17;2.87;;;13.40;99.90;;;;;;5081448;28;20442;-76
2023/08/12 04:46:09;;;;;;;4.23;2.57;;;13.40;99.90;;;;;;5077894;28;20463;-77
2023/08/12 04:48:38;;;;;;;3.10;2.90;;;13.40;99.90;;;;;;5083928;28;20440;-76
2023/08/12 04:51:05;;;;;;;2.90;2.30;;;13.40;99.90;;;;;;5078112;28;20934;-76
2023/08/12 04:53:32;;;;;;;2.43;2.20;;;13.40;99.90;;;;;;5073446;28;20465;-76
2023/08/12 04:55:59;;;;;;;3.87;1.77;;;13.50;99.90;;;;;;5072260;28;21042;-77
2023/08/12 04:58:26;;;;;;;2.20;1.83;;;13.70;99.90;;;;;;5082201;28;20855;-78
2023/08/12 05:00:53;;;;;;;2.40;2.20;;;13.70;99.90;;;;;;5070436;28;20562;-76
2023/08/12 05:03:20;;;;;;;2.43;2.23;;;13.80;99.90;;;;;;5076783;28;20451;-78
2023/08/12 05:05:51;;;;;;;2.43;2.23;;;13.90;99.90;;;;;;5081355;28;21121;-79
2023/08/12 05:08:18;;;;;;;4.23;3.53;;;13.90;99.90;;;;;;5076282;28;20535;-78
2023/08/12 05:10:48;;;;;;;3.60;3.03;;;14.00;99.90;;;;;;5074644;28;20963;-77
2023/08/12 05:13:15;;;;;;;2.30;2.17;;;14.10;99.90;;;;;;5070996;28;20453;-78
2023/08/12 05:15:42;;;;;;;2.07;1.80;;;14.20;99.90;;;;;;5072648;28;21038;-75
2023/08/12 05:18:09;;;;;;;2.67;2.40;;;14.30;99.90;;;;;;5074437;28;20449;-78
2023/08/12 05:20:36;;;;;;;2.33;2.23;;;14.30;99.90;;;;;;5078947;28;20443;-76
2023/08/12 05:23:04;;;;;;;2.27;2.13;;;14.40;99.90;;;;;;5087796;28;20471;-77
2023/08/12 05:25:31;;;;;;;3.20;3.00;;;14.40;99.90;;;;;;5101053;28;20934;-78
2023/08/12 05:27:58;;;;;;;2.80;2.60;;;14.60;99.90;;;;;;5092045;28;20523;-76
2023/08/12 05:30:25;;;;;;;3.47;3.27;;;14.60;99.90;;;;;;5093477;28;20498;-76
2023/08/12 05:32:52;;;;;;;6.10;3.20;;;14.70;99.90;;;;;;5085336;28;20461;-76
2023/08/12 05:35:19;;;;;;;3.17;2.87;;;14.70;99.90;;;;;;5078576;28;21305;-77
2023/08/12 05:37:46;;;;;;;6.73;2.60;;;14.80;99.90;;;;;;5086674;28;20440;-79
2023/08/12 05:40:15;;;;;;;3.10;2.90;;;14.80;99.90;;;;;;5088910;28;20499;-76
2023/08/12 05:42:41;;;;;;;3.40;3.10;;;14.70;99.90;;;;;;5091085;28;20690;-75
2023/08/12 05:45:10;;;;;;;2.77;2.57;;;14.70;99.90;;;;;;5090331;28;21602;-78
2023/08/12 05:47:37;;;;;;;3.93;3.60;;;14.80;99.90;;;;;;5080654;28;20948;-77
2023/08/12 05:50:06;;;;;;;5.93;3.13;;;14.90;99.90;;;;;;5080498;28;20523;-77
2023/08/12 05:52:33;;;;;;;6.00;3.87;;;14.90;99.90;;;;;;5088646;28;20447;-77
2023/08/12 05:55:00;;;;;;;2.90;2.70;;;15.10;99.90;;;;;;5084171;28;20517;-77
2023/08/12 05:57:29;;;;;;;4.10;3.70;;;15.20;99.90;;;;;;5087810;28;21214;-77
2023/08/12 05:59:56;;;;;;;2.40;2.30;;;15.30;99.90;;;;;;5086430;28;20487;-79
2023/08/12 06:02:25;;;;;;;2.30;2.10;;;15.40;99.90;;;;;;5088680;28;20500;-79
2023/08/12 06:04:52;;;;;;;3.20;2.07;;;15.20;99.90;;;;;;5086337;28;20509;-78
2023/08/12 06:07:19;;;;;;;2.57;2.37;;;15.30;99.90;;;;;;5083412;28;21018;-78
2023/08/12 06:09:46;;;;;;;2.27;2.17;;;15.30;99.90;;;;;;5085384;28;20548;-75
2023/08/12 06:12:13;;;;;;;2.00;1.90;;;15.50;99.90;;;;;;5079221;28;20536;-79
2023/08/12 06:14:41;;;;;;;2.40;1.80;;;15.70;99.90;;;;;;5087307;28;21254;-77
2023/08/12 06:17:08;;;;;;;1.87;1.77;;;16.00;99.90;;;;;;5087531;28;20549;-75
2023/08/12 06:19:35;;;;;;;4.93;3.17;;;16.00;99.90;;;;;;5086716;28;20454;-79
2023/08/12 06:22:03;;;;;;;2.30;2.20;;;16.20;99.90;;;;;;5085685;28;20467;-77
2023/08/12 06:24:29;;;;;;;2.30;1.77;;;16.30;99.90;;;;;;5088655;28;20450;-77
2023/08/12 06:26:56;;;;;;;3.07;2.50;;;16.40;99.90;;;;;;5081230;28;20921;-76
2023/08/12 06:29:24;;;;;;;2.30;2.20;;;16.70;99.90;;;;;;5085145;28;20473;-79
2023/08/12 06:31:53;;;;;;;2.17;2.00;;;16.90;99.90;;;;;;5087449;28;20440;-78
2023/08/12 06:34:20;;;;;;;1.40;1.30;;;17.20;99.90;;;;;;5086789;28;20469;-77
2023/08/12 06:36:47;;;;;;;1.97;1.87;;;17.20;99.90;;;;;;5086639;28;20490;-79
2023/08/12 06:39:14;;;;;;;1.60;1.50;;;17.50;99.90;;;;;;5088216;28;20438;-84
2023/08/12 06:41:41;;;;;;;2.50;1.33;;;17.50;99.90;;;;;;5078412;28;20440;-76
2023/08/12 06:44:08;;;;;;;1.50;1.40;;;17.70;99.90;;;;;;5067756;28;20618;-77
2023/08/12 06:46:35;;;;;;;1.53;1.43;;;17.70;99.90;;;;;;5076854;28;20568;-78
2023/08/12 06:49:03;;;;;;;2.07;1.90;;;17.80;99.90;;;;;;5071243;28;20518;-76
2023/08/12 06:51:31;;;;;;;2.33;1.80;;;18.00;99.90;;;;;;5074725;28;20469;-77
2023/08/12 06:53:58;;;;;;;2.70;1.60;;;17.90;99.90;;;;;;5083502;28;20460;-77
2023/08/12 06:56:25;;;;;;;2.10;1.90;;;18.30;99.90;;;;;;5088734;28;20575;-77
2023/08/12 06:58:52;;;;;;;3.70;1.87;;;18.40;99.90;;;;;;5071679;28;21015;-77
2023/08/12 07:01:19;;;;;;;1.90;1.67;;;18.60;99.90;;;;;;5072444;28;20516;-77
2023/08/12 07:03:46;;;;;;;2.60;1.87;;;18.70;99.90;;;;;;5075578;28;20470;-78
2023/08/12 07:06:15;;;;;;;1.20;1.10;;;18.80;99.90;;;;;;5072998;28;20522;-77
2023/08/12 07:08:42;;;;;;;1.80;1.70;;;18.90;99.90;;;;;;5085938;28;20459;-77
2023/08/12 07:11:09;;;;;;;1.30;1.20;;;19.20;99.90;;;;;;5080014;28;20447;-77
2023/08/12 07:13:37;;;;;;;1.37;1.27;;;19.20;99.90;;;;;;5078487;28;20463;-78
2023/08/12 07:16:04;;;;;;;1.20;1.10;;;19.50;99.90;;;;;;5078066;28;20533;-76
2023/08/12 07:18:31;;;;;;;1.70;1.60;;;19.60;99.90;;;;;;5070036;28;20548;-77
2023/08/12 07:20:59;;;;;;;3.07;1.50;;;19.60;99.90;;;;;;5086453;28;20446;-77
2023/08/12 07:23:27;;;;;;;1.50;1.30;;;19.70;99.90;;;;;;5087017;28;20459;-76
2023/08/12 07:25:54;;;;;;;1.77;1.67;;;19.80;99.90;;;;;;5069224;28;20466;-76
2023/08/12 07:28:21;;;;;;;6.10;1.33;;;20.00;99.90;;;;;;5083628;28;20520;-76
2023/08/12 07:30:49;;;;;;;3.13;1.40;;;19.90;99.90;;;;;;5084737;28;20465;-78
2023/08/12 07:33:16;;;;;;;1.13;1.00;;;20.20;99.90;;;;;;5087175;28;20504;-77
2023/08/12 07:35:44;;;;;;;1.20;1.10;;;20.40;99.90;;;;;;5087290;28;20485;-77
2023/08/12 07:38:11;;;;;;;1.10;1.00;;;20.60;99.90;;;;;;5084002;28;20451;-77
2023/08/12 07:40:40;;;;;;;1.20;1.00;;;20.70;99.90;;;;;;5087381;28;20444;-76
2023/08/12 07:43:06;;;;;;;1.03;0.90;;;20.80;99.90;;;;;;5087378;28;20439;-78
2023/08/12 07:45:34;;;;;;;2.20;1.10;;;21.00;99.90;;;;;;5083058;28;21023;-80
2023/08/12 07:48:01;;;;;;;1.07;0.97;;;21.30;99.90;;;;;;5087080;28;20439;-79
2023/08/12 07:50:27;;;;;;;3.40;1.23;;;21.30;99.90;;;;;;5086823;28;20442;-77
2023/08/12 07:52:55;;;;;;;1.20;1.10;;;21.20;99.90;;;;;;5080638;28;20492;-77
2023/08/12 07:55:22;;;;;;;1.37;1.27;;;21.30;99.90;;;;;;5074941;28;20490;-75
2023/08/12 07:57:50;;;;;;;2.70;1.30;;;21.30;99.90;;;;;;5077698;28;20492;-75
2023/08/12 08:00:17;;;;;;;1.27;1.07;;;21.70;99.90;;;;;;5073190;28;21284;-78
2023/08/12 08:02:44;;;;;;;1.73;1.20;;;22.10;99.90;;;;;;5077423;28;20540;-77
2023/08/12 08:05:11;;;;;;;1.67;1.27;;;21.90;99.90;;;;;;5077533;28;20502;-76
2023/08/12 08:07:38;;;;;;;1.43;1.17;;;22.20;99.90;;;;;;5077054;28;20462;-78
2023/08/12 08:10:06;;;;;;;1.47;1.13;;;22.20;99.90;;;;;;5076954;28;20442;-78
2023/08/12 08:12:33;;;;;;;0.80;0.80;;;22.20;99.90;;;;;;5071777;28;20505;-77
2023/08/12 08:15:03;;;;;;;1.17;1.07;;;22.50;99.90;;;;;;5074122;28;20532;-75
2023/08/12 08:17:30;;;;;;;1.37;1.20;;;22.70;99.90;;;;;;5074279;28;20463;-75
2023/08/12 08:19:57;;;;;;;4.70;1.30;;;22.70;99.90;;;;;;5088663;28;20443;-76
2023/08/12 08:22:24;;;;;;;1.03;0.83;;;22.50;99.90;;;;;;5094004;28;20452;-77
2023/08/12 08:24:51;;;;;;;1.70;1.00;;;22.60;99.90;;;;;;5083032;28;20457;-76
2023/08/12 08:27:18;;;;;;;0.80;0.80;;;22.70;99.90;;;;;;5085465;28;20440;-77
2023/08/12 08:29:45;;;;;;;2.20;0.90;;;22.90;99.90;;;;;;5082095;28;21043;-77
2023/08/12 08:32:13;;;;;;;0.73;0.70;;;23.20;99.90;;;;;;5083601;28;20444;-77
2023/08/12 08:34:40;;;;;;;1.33;1.10;;;23.30;99.90;;;;;;5077301;28;20526;-77
2023/08/12 08:37:07;;;;;;;1.00;0.90;;;23.50;99.90;;;;;;5070330;28;20487;-77
2023/08/12 08:39:34;;;;;;;0.80;0.80;;;23.70;99.90;;;;;;5074617;28;20500;-78
2023/08/12 08:42:01;;;;;;;0.90;0.90;;;23.70;99.90;;;;;;5077823;28;20463;-75
2023/08/12 08:44:31;;;;;;;1.53;1.00;;;23.50;99.90;;;;;;5079933;28;20873;-78
2023/08/12 08:47:00;;;;;;;0.90;0.90;;;23.50;99.90;;;;;;5076356;28;20494;-78
2023/08/12 08:49:30;;;;;;;1.00;0.77;;;23.30;99.90;;;;;;5073214;28;20520;-75
2023/08/12 08:51:58;;;;;;;1.67;1.50;;;23.70;99.90;;;;;;5071866;28;20437;-78
2023/08/12 08:54:25;;;;;;;4.53;1.40;;;23.90;99.90;;;;;;5076588;28;20993;-78
2023/08/12 08:56:52;;;;;;;3.17;0.60;;;24.20;99.90;;;;;;5079242;28;20559;-78
2023/08/12 08:59:21;;;;;;;1.20;1.10;;;24.40;99.90;;;;;;5069690;28;20486;-75
2023/08/12 09:01:51;;;;;;;0.73;0.73;;;24.50;99.90;;;;;;5071281;28;20527;-76
2023/08/12 09:04:19;;;;;;;0.90;0.90;;;24.40;99.90;;;;;;5072704;28;20455;-75
2023/08/12 09:06:48;;;;;;;1.00;0.90;;;24.60;99.90;;;;;;5076336;28;20472;-77
2023/08/12 09:09:18;;;;;;;0.87;0.87;;;24.80;99.90;;;;;;5077407;28;20496;-76
2023/08/12 09:11:45;;;;;;;1.57;1.23;;;25.00;99.90;;;;;;5074950;28;20437;-77
2023/08/12 09:14:13;;;;;;;1.00;1.00;;;25.00;99.90;;;;;;5065836;28;20451;-75
2023/08/12 09:16:40;;;;;;;3.10;0.80;;;25.10;99.90;;;;;;5070592;28;20490;-76
2023/08/12 09:19:07;;;;;;;1.17;0.97;;;25.00;99.90;;;;;;5078890;28;20506;-77
2023/08/12 09:21:34;;;;;;;1.20;1.20;;;24.90;99.60;;;;;;5081499;28;20494;-75
2023/08/12 09:24:05;;;;;;;1.77;1.00;;;25.00;99.90;;;;;;5086686;28;20496;-75
2023/08/12 09:26:32;;;;;;;2.10;0.70;;;25.10;99.90;;;;;;5084709;28;20484;-76
2023/08/12 09:29:00;;;;;;;1.00;0.90;;;25.20;99.90;;;;;;5084459;28;20468;-77
2023/08/12 09:31:29;;;;;;;0.70;0.70;;;25.50;99.90;;;;;;5080944;28;20450;-76
2023/08/12 09:33:59;;;;;;;0.87;0.87;;;25.20;99.30;;;;;;5085257;28;20492;-75
2023/08/12 09:36:29;;;;;;;1.53;1.00;;;25.40;99.20;;;;;;5083895;28;20493;-78
2023/08/12 09:38:57;;;;;;;1.13;1.00;;;25.50;99.90;;;;;;5089216;28;20492;-76
2023/08/12 09:41:27;;;;;;;0.73;0.67;;;25.70;99.30;;;;;;5085936;28;20521;-76
2023/08/12 09:43:54;;;;;;;0.70;0.67;;;25.90;99.90;;;;;;5084438;28;21004;-78
2023/08/12 09:46:24;;;;;;;0.80;0.80;;;25.70;98.00;;;;;;5084858;28;20527;-76
2023/08/12 09:48:52;;;;;;;0.70;0.70;;;25.50;99.00;;;;;;5106102;28;20673;-76
2023/08/12 09:51:19;;;;;;;2.23;1.00;;;25.40;97.10;;;;;;5077406;28;20440;-76
2023/08/12 09:53:48;;;;;;;0.90;0.90;;;25.80;99.90;;;;;;5080880;28;20448;-75
2023/08/12 09:56:20;;;;;;;0.80;0.80;;;26.10;98.00;;;;;;5075075;28;20715;-75
2023/08/12 09:58:50;;;;;;;1.93;0.70;;;26.00;96.20;;;;;;5083955;28;21055;-76
2023/08/12 10:01:20;;;;;;;2.30;0.70;;;26.10;98.20;;;;;;5089519;28;20541;-78
2023/08/12 10:03:51;;;;;;;0.80;0.73;;;26.20;97.00;;;;;;5072869;28;20875;-76
2023/08/12 10:06:18;;;;;;;1.20;1.10;;;26.40;98.00;;;;;;5086202;28;21038;-77
2023/08/12 10:08:47;;;;;;;1.20;0.90;;;26.30;96.60;;;;;;5069588;28;20509;-77
2023/08/12 10:11:15;;;;;;;0.70;0.70;;;26.20;97.20;;;;;;5077815;28;20435;-78
2023/08/12 10:13:42;;;;;;;1.30;0.90;;;26.30;96.60;;;;;;5080592;28;20509;-76
2023/08/12 10:16:12;;;;;;;1.00;0.90;;;26.70;97.20;;;;;;5080161;28;20490;-78
2023/08/12 10:18:41;;;;;;;0.70;0.70;;;26.80;99.50;;;;;;5073540;28;20655;-75
2023/08/12 10:21:10;;;;;;;0.80;0.70;;;26.70;98.40;;;;;;5087310;28;20543;-78
2023/08/12 10:23:37;;;;;;;1.50;0.80;;;26.80;97.70;;;;;;5087698;28;20448;-75
2023/08/12 10:26:07;;;;;;;1.07;0.90;;;27.10;97.70;;;;;;5087641;28;20449;-75
2023/08/12 10:28:36;;;;;;;0.70;0.70;;;27.10;95.90;;;;;;5080192;28;20524;-79
2023/08/12 10:31:04;;;;;;;0.70;0.70;;;27.00;96.30;;;;;;5088810;28;20471;-76
2023/08/12 10:33:37;;;;;;;1.10;0.90;;;27.10;95.20;;;;;;5086620;28;20466;-76
2023/08/12 10:36:05;;;;;;;1.37;1.27;;;27.40;95.20;;;;;;5076080;28;20569;-78
2023/08/12 10:38:34;;;;;;;1.20;0.80;;;27.30;93.90;;;;;;5088898;28;20526;-78
2023/08/12 10:41:20;;;;;;;1.77;0.80;;;27.10;97.00;;;;;;5080010;28;20544;-75
2023/08/12 10:43:54;;;;;;;1.40;0.70;;;27.00;96.30;;;;;;5089195;28;20467;-78
2023/08/12 10:46:30;;;;;;;1.03;0.93;;;26.80;96.80;;;;;;5082821;28;20550;-75
2023/08/12 10:49:09;;;;;;;1.00;0.60;;;26.90;95.90;;;;;;5086508;28;20456;-78
2023/08/12 10:51:45;;;;;;;1.10;1.00;;;27.10;97.90;;;;;;5079759;28;20512;-76
2023/08/12 10:54:15;;;;;;;0.80;0.67;;;26.90;95.90;;;;;;5078052;28;20603;-77
2023/08/12 10:57:10;;;;;;;0.80;0.80;;;27.10;96.00;;;;;;5078090;28;21308;-76
2023/08/12 10:59:54;;;;;;;2.80;1.10;;;27.40;95.70;;;;;;5079952;28;20468;-76
2023/08/12 11:02:23;;;;;;;1.00;0.80;;;27.80;97.00;;;;;;5078541;28;20448;-78
2023/08/12 11:04:53;;;;;;;5.63;0.70;;;27.90;96.50;;;;;;5081422;28;20578;-79
2023/08/12 11:07:28;;;;;;;1.30;0.90;;;27.60;94.30;;;;;;5079868;28;20461;-77
2023/08/12 11:10:02;;;;;;;0.80;0.70;;;27.50;95.40;;;;;;5082031;28;20703;-78
2023/08/12 11:12:34;;;;;;;1.27;1.20;;;27.50;94.60;;;;;;5080653;28;20455;-77
2023/08/12 11:15:03;;;;;;;1.60;1.50;;;27.20;96.00;;;;;;5099551;28;20451;-78
2023/08/12 11:17:35;;;;;;;1.30;0.83;;;27.30;96.90;;;;;;5093168;28;21001;-75
2023/08/12 11:20:06;;;;;;;1.10;1.00;;;27.70;95.70;;;;;;5078480;28;20958;-79
2023/08/12 11:22:36;;;;;;;1.33;0.80;;;27.70;95.30;;;;;;5085665;28;20922;-76
2023/08/12 11:25:04;;;;;;;3.37;1.17;;;27.90;94.10;;;;;;5087252;28;20455;-77
2023/08/12 11:27:41;;;;;;;0.90;0.90;;;27.90;93.80;;;;;;5081891;28;20995;-76
2023/08/12 11:30:10;;;;;;;0.80;0.80;;;27.70;95.80;;;;;;5081942;28;20545;-76
2023/08/12 11:32:37;;;;;;;1.20;1.10;;;27.80;94.40;;;;;;5076420;28;20457;-78
2023/08/12 11:35:08;;;;;;;1.47;1.00;;;28.00;93.30;;;;;;5084749;28;20467;-79
2023/08/12 11:37:36;;;;;;;1.20;1.10;;;28.10;93.70;;;;;;5082727;28;20483;-77
2023/08/12 11:40:05;;;;;;;0.77;0.70;;;28.00;93.50;;;;;;5080599;28;20516;-76
2023/08/12 11:42:32;;;;;;;1.20;0.93;;;27.90;92.70;;;;;;5087730;28;20442;-76
2023/08/12 11:44:59;;;;;;;1.63;1.00;;;28.30;93.50;;;;;;5074267;28;20529;-79
2023/08/12 11:47:26;;;;;;;2.03;0.90;;;28.50;94.70;;;;;;5084729;28;20511;-77
2023/08/12 11:49:54;;;;;;;1.97;1.47;;;28.70;93.10;;;;;;5086532;28;20532;-76
2023/08/12 11:52:23;;;;;;;1.23;0.90;;;28.50;92.80;;;;;;5080268;28;21014;-78
2023/08/12 11:54:50;;;;;;;2.00;1.90;;;28.30;91.50;;;;;;5087485;28;20446;-77
2023/08/12 11:57:18;;;;;;;1.00;0.90;;;28.50;92.40;;;;;;5082156;28;20848;-77
2023/08/12 11:59:45;;;;;;;1.17;1.10;;;28.50;92.60;;;;;;5086840;28;20557;-78
2023/08/12 12:02:13;;;;;;;3.57;1.67;;;28.30;92.40;;;;;;5085347;28;20553;-80
2023/08/12 12:04:43;;;;;;;1.17;1.00;;;28.60;91.80;;;;;;5083473;28;20491;-75
2023/08/12 12:07:20;;;;;;;1.60;1.50;;;28.60;92.10;;;;;;5080553;28;20469;-74
2023/08/12 12:09:51;;;;;;;1.17;0.80;;;28.70;91.50;;;;;;5080667;28;20455;-74
2023/08/12 12:12:18;;;;;;;0.90;0.87;;;28.80;92.50;;;;;;5072975;28;20444;-74
2023/08/12 12:14:47;;;;;;;1.17;0.97;;;29.10;92.90;;;;;;5084244;28;20503;-77
2023/08/12 12:17:16;;;;;;;0.80;0.80;;;29.00;91.20;;;;;;5080257;28;20548;-76
2023/08/12 12:19:43;;;;;;;1.23;0.90;;;29.00;91.10;;;;;;5080401;28;20451;-75
2023/08/12 12:22:10;;;;;;;1.63;1.27;;;29.00;90.70;;;;;;5084486;28;20533;-76
2023/08/12 12:24:46;;;;;;;2.07;1.10;;;29.00;92.50;;;;;;5086278;28;20508;-75
2023/08/12 12:27:14;;;;;;;0.87;0.80;;;28.80;90.90;;;;;;5086063;28;20454;-76
2023/08/12 12:29:41;;;;;;;1.63;0.90;;;28.90;89.10;;;;;;5086931;28;20478;-75
2023/08/12 12:32:09;;;;;;;1.77;1.00;;;28.90;90.30;;;;;;5085040;28;20512;-77
2023/08/12 12:34:36;;;;;;;1.83;1.03;;;29.20;91.50;;;;;;5086411;28;20526;-76
2023/08/12 12:37:03;;;;;;;1.50;1.00;;;29.20;88.00;;;;;;5083354;28;20490;-78
2023/08/12 12:39:31;;;;;;;1.27;1.03;;;29.10;90.40;;;;;;5091969;28;20435;-75
2023/08/12 12:41:59;;;;;;;1.33;1.23;;;29.40;90.10;;;;;;5109142;28;20492;-78
2023/08/12 12:44:27;;;;;;;1.20;1.10;;;29.20;88.80;;;;;;5088563;28;20884;-76
2023/08/12 12:46:54;;;;;;;1.77;1.57;;;29.20;89.10;;;;;;5085603;28;20455;-76
2023/08/12 12:49:22;;;;;;;1.27;0.80;;;29.20;91.80;;;;;;5086818;28;20471;-74
2023/08/12 12:51:49;;;;;;;1.00;1.00;;;29.20;89.20;;;;;;5082617;28;20541;-76